createdAt,value
2022-07-26T00:00:59.863Z,7.4
2022-07-26T00:02:16.158Z,7.2
2022-07-26T00:03:32.452Z,7.3
2022-07-26T00:04:48.750Z,7
2022-07-26T00:06:05.036Z,7.4
2022-07-26T00:07:21.338Z,7
2022-07-26T00:08:37.621Z,7.5
2022-07-26T00:09:53.923Z,7.4
2022-07-26T00:11:10.218Z,7.4
2022-07-26T00:12:25.515Z,7.3
2022-07-26T00:13:41.825Z,7.5
2022-07-26T00:14:58.114Z,7.5
2022-07-26T00:16:14.404Z,7.9
2022-07-26T00:17:30.691Z,7.9
2022-07-26T00:18:46.000Z,7.5
2022-07-26T00:20:03.293Z,7.5
2022-07-26T00:21:19.582Z,7.5
2022-07-26T00:22:35.878Z,7.2
2022-07-26T00:23:52.168Z,8.2
2022-07-26T00:25:08.455Z,7.7
2022-07-26T00:26:24.760Z,8
2022-07-26T00:27:41.056Z,8.1
2022-07-26T00:28:56.353Z,7.8
2022-07-26T00:30:12.643Z,7.6
2022-07-26T00:31:28.948Z,7.7
2022-07-26T00:34:01.538Z,7.3
2022-07-26T00:35:17.831Z,7.8
2022-07-26T00:36:34.128Z,7.8
2022-07-26T00:37:50.413Z,7.7
2022-07-26T00:39:06.710Z,7.4
2022-07-26T00:40:23.009Z,8
2022-07-26T00:41:39.297Z,7.8
2022-07-26T00:42:55.591Z,7.8
2022-07-26T00:44:11.887Z,7.9
2022-07-26T00:45:27.198Z,7.7
2022-07-26T00:46:43.476Z,7.6
2022-07-26T00:47:59.768Z,7.7
2022-07-26T00:49:16.069Z,7.8
2022-07-26T00:50:32.362Z,7.5
2022-07-26T00:51:48.648Z,7.3
2022-07-26T00:53:04.954Z,7.3
2022-07-26T00:54:21.248Z,7.8
2022-07-26T00:55:37.545Z,7.3
2022-07-26T00:56:53.833Z,7.7
2022-07-26T00:58:10.134Z,7.9
2022-07-26T00:59:26.430Z,8.5
2022-07-26T01:00:42.717Z,7.5
2022-07-26T01:01:58.030Z,7.6
2022-07-26T01:03:14.307Z,7.7
2022-07-26T01:04:30.615Z,7.6
2022-07-26T01:05:46.899Z,7.8
2022-07-26T01:07:03.198Z,7.8
2022-07-26T01:08:19.498Z,8
2022-07-26T01:09:35.793Z,8.3
2022-07-26T01:10:52.083Z,8.3
2022-07-26T01:12:08.367Z,8.3
2022-07-26T01:13:24.655Z,8
2022-07-26T01:14:40.952Z,8.3
2022-07-26T01:15:57.259Z,8.5
2022-07-26T01:17:13.551Z,8.2
2022-07-26T01:18:28.859Z,7.9
2022-07-26T01:19:45.154Z,7.7
2022-07-26T01:21:01.445Z,7.7
2022-07-26T01:22:17.732Z,7.6
2022-07-26T01:23:34.030Z,8.2
2022-07-26T01:24:50.318Z,7.7
2022-07-26T01:26:06.612Z,8.4
2022-07-26T01:27:22.924Z,7.9
2022-07-26T01:28:39.213Z,8.1
2022-07-26T01:29:55.507Z,8
2022-07-26T01:31:11.793Z,8.4
2022-07-26T01:32:28.081Z,8.5
2022-07-26T01:33:44.386Z,8.9
2022-07-26T01:34:59.687Z,8
2022-07-26T01:36:15.990Z,8.5
2022-07-26T01:37:32.279Z,8
2022-07-26T01:38:48.581Z,8.5
2022-07-26T01:40:04.864Z,8
2022-07-26T01:41:21.168Z,7.7
2022-07-26T01:42:37.451Z,7.4
2022-07-26T01:43:53.749Z,7.7
2022-07-26T01:45:10.043Z,7.6
2022-07-26T01:46:26.323Z,7.6
2022-07-26T01:47:42.634Z,7.9
2022-07-26T01:48:58.928Z,7.6
2022-07-26T01:50:15.208Z,7.4
2022-07-26T01:51:30.513Z,7.7
2022-07-26T01:52:46.827Z,7
2022-07-26T01:54:03.112Z,7.2
2022-07-26T01:55:19.404Z,7.1
2022-07-26T01:56:35.690Z,7
2022-07-26T01:57:52.000Z,7.2
2022-07-26T01:59:08.291Z,7.3
2022-07-26T02:00:24.577Z,7.1
2022-07-26T02:01:40.878Z,6.9
2022-07-26T02:02:57.173Z,7.4
2022-07-26T02:04:13.459Z,7.7
2022-07-26T02:05:29.747Z,7
2022-07-26T02:06:46.042Z,7.5
2022-07-26T02:08:01.348Z,7.2
2022-07-26T02:09:17.646Z,6.9
2022-07-26T02:10:33.942Z,6.8
2022-07-26T02:11:50.235Z,7.2
2022-07-26T02:13:06.526Z,7.1
2022-07-26T02:14:22.827Z,7.6
2022-07-26T02:15:39.113Z,7.2
2022-07-26T02:16:55.419Z,7.5
2022-07-26T02:18:11.714Z,7.4
2022-07-26T02:19:27.989Z,7.1
2022-07-26T02:20:44.282Z,8.1
2022-07-26T02:22:00.590Z,7.7
2022-07-26T02:23:16.869Z,7.1
2022-07-26T02:24:32.182Z,7.6
2022-07-26T02:25:48.485Z,7.2
2022-07-26T02:27:04.781Z,7.1
2022-07-26T02:28:21.073Z,7.1
2022-07-26T02:29:37.357Z,7
2022-07-26T02:30:53.660Z,7.2
2022-07-26T02:32:08.980Z,7.4
2022-07-26T02:33:25.276Z,7.8
2022-07-26T02:34:41.571Z,7.9
2022-07-26T02:35:57.860Z,7.7
2022-07-26T02:37:14.145Z,7.2
2022-07-26T02:38:30.432Z,7.4
2022-07-26T02:39:46.729Z,7.3
2022-07-26T02:41:03.038Z,8
2022-07-26T02:42:19.323Z,7.8
2022-07-26T02:43:35.618Z,7.8
2022-07-26T02:44:51.913Z,7.6
2022-07-26T02:46:08.209Z,7.7
2022-07-26T02:47:24.491Z,7.9
2022-07-26T02:48:39.813Z,8
2022-07-26T02:49:56.103Z,8
2022-07-26T02:51:12.399Z,8.3
2022-07-26T02:52:28.697Z,7.9
2022-07-26T02:53:44.977Z,8.5
2022-07-26T02:55:01.213Z,8.3
2022-07-26T02:56:17.526Z,8.1
2022-07-26T02:57:33.803Z,8.5
2022-07-26T02:58:50.054Z,8.3
2022-07-26T03:00:06.293Z,8.2
2022-07-26T03:01:22.547Z,8.2
2022-07-26T03:02:38.769Z,9.1
2022-07-26T03:03:55.020Z,8.5
2022-07-26T03:05:10.277Z,8.4
2022-07-26T03:06:26.520Z,8.4
2022-07-26T03:07:42.759Z,8.2
2022-07-26T03:08:59.001Z,8.1
2022-07-26T03:10:15.254Z,8.1
2022-07-26T03:11:31.485Z,7.7
2022-07-26T03:12:47.731Z,7.7
2022-07-26T03:14:03.968Z,8.9
2022-07-26T03:15:20.194Z,8.1
2022-07-26T03:16:36.450Z,7.9
2022-07-26T03:17:52.693Z,8.5
2022-07-26T03:19:08.927Z,7.8
2022-07-26T03:20:25.168Z,8
2022-07-26T03:21:40.422Z,8.1
2022-07-26T03:22:56.667Z,7.3
2022-07-26T03:24:12.905Z,8.1
2022-07-26T03:25:29.135Z,7.9
2022-07-26T03:26:45.375Z,7.6
2022-07-26T03:28:01.614Z,7.7
2022-07-26T03:29:17.850Z,7.3
2022-07-26T03:30:34.094Z,6.9
2022-07-26T03:31:50.340Z,7.4
2022-07-26T03:33:06.580Z,6.4
2022-07-26T03:34:22.818Z,6
2022-07-26T03:35:39.057Z,6.2
2022-07-26T03:36:55.292Z,6.2
2022-07-26T03:38:10.551Z,6.1
2022-07-26T03:39:26.789Z,6
2022-07-26T03:40:43.035Z,5.9
2022-07-26T03:41:59.279Z,5
2022-07-26T03:43:15.515Z,4.9
2022-07-26T03:44:31.747Z,4.9
2022-07-26T03:45:47.983Z,4.9
2022-07-26T03:47:04.227Z,5
2022-07-26T03:48:20.466Z,4.5
2022-07-26T03:49:36.719Z,4.5
2022-07-26T03:50:52.963Z,4.7
2022-07-26T03:52:09.200Z,4.6
2022-07-26T03:53:25.423Z,4.4
2022-07-26T03:54:40.693Z,4.2
2022-07-26T03:55:56.921Z,4.3
2022-07-26T03:57:13.177Z,4.2
2022-07-26T03:58:29.417Z,4.2
2022-07-26T03:59:45.644Z,4
2022-07-26T04:02:18.122Z,4.2
2022-07-26T04:03:34.370Z,4.1
2022-07-26T04:04:50.614Z,4.1
2022-07-26T04:06:06.839Z,3.9
2022-07-26T04:07:23.076Z,4.2
2022-07-26T04:08:39.324Z,4.2
2022-07-26T04:09:55.555Z,4.2
2022-07-26T04:12:27.057Z,4.2
2022-07-26T04:13:43.293Z,3.9
2022-07-26T04:14:59.548Z,4
2022-07-26T04:16:15.786Z,4.2
2022-07-26T04:17:32.027Z,4.1
2022-07-26T04:18:48.252Z,4.3
2022-07-26T04:20:04.495Z,4.1
2022-07-26T04:21:20.735Z,4.1
2022-07-26T04:22:36.984Z,4.3
2022-07-26T04:23:53.226Z,4
2022-07-26T04:25:09.453Z,3.6
2022-07-26T04:26:25.710Z,4.1
2022-07-26T04:27:40.948Z,4
2022-07-26T04:28:57.191Z,3.9
2022-07-26T04:30:13.428Z,3.8
2022-07-26T04:31:29.669Z,4.1
2022-07-26T04:32:45.913Z,3.8
2022-07-26T04:34:02.143Z,3.7
2022-07-26T04:35:18.384Z,3.6
2022-07-26T04:36:34.634Z,3.8
2022-07-26T04:37:50.869Z,3.6
2022-07-26T04:39:07.112Z,3.7
2022-07-26T04:40:23.347Z,3.9
2022-07-26T04:41:39.594Z,3.7
2022-07-26T04:42:55.820Z,3.7
2022-07-26T04:44:11.083Z,3.6
2022-07-26T04:45:27.321Z,3.6
2022-07-26T04:46:43.556Z,3.9
2022-07-26T04:47:59.812Z,4.5
2022-07-26T04:49:16.035Z,4.4
2022-07-26T04:50:32.295Z,4.5
2022-07-26T04:51:48.532Z,4.2
2022-07-26T04:53:04.767Z,4.7
2022-07-26T04:54:21.006Z,4.5
2022-07-26T04:55:37.240Z,4.4
2022-07-26T04:56:53.484Z,4.4
2022-07-26T04:58:09.716Z,4.5
2022-07-26T04:59:25.953Z,4.3
2022-07-26T05:00:41.218Z,4.5
2022-07-26T05:01:57.450Z,4.1
2022-07-26T05:03:13.702Z,4.6
2022-07-26T05:04:29.940Z,4.5
2022-07-26T05:05:46.172Z,4.4
2022-07-26T05:07:02.421Z,4.5
2022-07-26T05:08:18.648Z,4.3
2022-07-26T05:09:34.894Z,4.1
2022-07-26T05:10:51.142Z,4.3
2022-07-26T05:12:07.369Z,4.1
2022-07-26T05:13:23.613Z,4.1
2022-07-26T05:14:39.860Z,4.1
2022-07-26T05:15:56.107Z,4
2022-07-26T05:17:11.351Z,4.2
2022-07-26T05:18:27.583Z,4.1
2022-07-26T05:19:43.000Z,4.2
2022-07-26T05:21:00.068Z,4.5
2022-07-26T05:22:16.321Z,4.4
2022-07-26T05:23:32.547Z,4.4
2022-07-26T05:24:48.783Z,4.2
2022-07-26T05:26:05.023Z,4.4
2022-07-26T05:27:21.262Z,4.7
2022-07-26T05:28:37.508Z,4.4
2022-07-26T05:29:53.755Z,4.4
2022-07-26T05:31:09.989Z,4.6
2022-07-26T05:32:26.220Z,4.5
2022-07-26T05:33:41.490Z,4.2
2022-07-26T05:34:57.715Z,4.5
2022-07-26T05:36:13.960Z,4.3
2022-07-26T05:37:30.199Z,4.1
2022-07-26T05:38:46.443Z,4.6
2022-07-26T05:40:02.688Z,4.1
2022-07-26T05:41:18.914Z,4.4
2022-07-26T05:42:35.172Z,5
2022-07-26T05:43:51.394Z,4.6
2022-07-26T05:45:07.651Z,4.2
2022-07-26T05:46:23.887Z,4.3
2022-07-26T05:47:40.111Z,4
2022-07-26T05:48:56.361Z,3.9
2022-07-26T05:50:11.625Z,4
2022-07-26T05:51:27.856Z,3.8
2022-07-26T05:52:44.090Z,3.8
2022-07-26T05:54:00.344Z,4
2022-07-26T05:55:16.580Z,3.7
2022-07-26T05:56:32.806Z,3.6
2022-07-26T05:57:49.057Z,3.4
2022-07-26T05:59:05.288Z,3.4
2022-07-26T06:00:21.539Z,3.3
2022-07-26T06:01:37.765Z,3.4
2022-07-26T06:02:54.015Z,3.2
2022-07-26T06:04:10.264Z,3.3
2022-07-26T06:05:26.489Z,3.2
2022-07-26T06:06:41.744Z,3.4
2022-07-26T06:07:57.986Z,3.2
2022-07-26T06:09:14.235Z,3.1
2022-07-26T06:10:30.472Z,2.9
2022-07-26T06:11:46.703Z,3
2022-07-26T06:13:02.958Z,3
2022-07-26T06:14:19.194Z,3
2022-07-26T06:15:35.433Z,2.9
2022-07-26T06:16:51.665Z,3
2022-07-26T06:18:07.903Z,3
2022-07-26T06:19:24.144Z,3
2022-07-26T06:20:40.376Z,3
2022-07-26T06:21:56.627Z,2.8
2022-07-26T06:23:11.892Z,3.1
2022-07-26T06:24:28.117Z,2.6
2022-07-26T06:25:44.362Z,2.9
2022-07-26T06:27:00.594Z,2.8
2022-07-26T06:28:16.849Z,2.7
2022-07-26T06:29:33.088Z,3.3
2022-07-26T06:30:49.323Z,2.7
2022-07-26T06:32:05.562Z,2.7
2022-07-26T06:33:21.806Z,2.5
2022-07-26T06:34:38.038Z,2.6
2022-07-26T06:37:10.515Z,2.7
2022-07-26T06:38:26.759Z,2.7
2022-07-26T06:39:42.006Z,2.3
2022-07-26T06:40:58.258Z,2.6
2022-07-26T06:42:14.500Z,2.3
2022-07-26T06:43:30.732Z,2.3
2022-07-26T06:44:46.967Z,2.3
2022-07-26T06:46:03.209Z,2.1
2022-07-26T06:47:18.480Z,2.1
2022-07-26T06:48:34.716Z,2.2
2022-07-26T06:49:50.961Z,2
2022-07-26T06:51:07.200Z,2.1
2022-07-26T06:52:23.442Z,1.9
2022-07-26T06:53:39.662Z,2.1
2022-07-26T06:54:55.917Z,2
2022-07-26T06:56:12.141Z,2.1
2022-07-26T06:57:28.396Z,2.2
2022-07-26T06:58:44.627Z,2.1
2022-07-26T07:00:00.878Z,2.2
2022-07-26T07:01:17.106Z,2.1
2022-07-26T07:02:33.351Z,2.1
2022-07-26T07:03:48.616Z,2.1
2022-07-26T07:05:04.836Z,2.1
2022-07-26T07:06:21.087Z,1.6
2022-07-26T07:07:37.317Z,2
2022-07-26T07:08:53.567Z,1.9
2022-07-26T07:10:09.804Z,1.9
2022-07-26T07:11:26.043Z,1.9
2022-07-26T07:12:42.290Z,1.9
2022-07-26T07:13:58.523Z,2
2022-07-26T07:15:14.755Z,1.9
2022-07-26T07:16:31.009Z,2
2022-07-26T07:17:47.247Z,1.9
2022-07-26T07:19:03.479Z,2.5
2022-07-26T07:20:18.738Z,1.9
2022-07-26T07:21:34.986Z,2.3
2022-07-26T07:22:51.222Z,1.9
2022-07-26T07:24:07.448Z,1.9
2022-07-26T07:25:23.702Z,1.8
2022-07-26T07:26:39.944Z,1.8
2022-07-26T07:27:56.174Z,2
2022-07-26T07:29:12.416Z,1.9
2022-07-26T07:30:28.664Z,2
2022-07-26T07:31:44.889Z,1.8
2022-07-26T07:33:01.136Z,2
2022-07-26T07:34:17.376Z,1.8
2022-07-26T07:35:33.611Z,1.9
2022-07-26T07:36:48.874Z,1.9
2022-07-26T07:38:05.112Z,1.9
2022-07-26T07:39:21.345Z,1.9
2022-07-26T07:40:37.593Z,2.2
2022-07-26T07:41:53.822Z,1.8
2022-07-26T07:43:10.069Z,1.7
2022-07-26T07:44:26.312Z,1.8
2022-07-26T07:45:42.545Z,1.8
2022-07-26T07:46:58.782Z,1.7
2022-07-26T07:48:15.024Z,1.8
2022-07-26T07:49:31.277Z,2
2022-07-26T07:50:47.502Z,2
2022-07-26T07:52:03.753Z,2
2022-07-26T07:53:18.994Z,1.9
2022-07-26T07:54:35.238Z,1.8
2022-07-26T07:55:51.491Z,1.8
2022-07-26T07:57:07.735Z,2
2022-07-26T07:58:23.962Z,1.9
2022-07-26T07:59:40.194Z,1.9
2022-07-26T08:00:56.445Z,1.9
2022-07-26T08:02:12.687Z,1.9
2022-07-26T08:03:28.929Z,1.7
2022-07-26T08:04:45.155Z,1.7
2022-07-26T08:06:01.405Z,2
2022-07-26T08:07:17.641Z,1.8
2022-07-26T08:08:33.884Z,1.8
2022-07-26T08:09:49.139Z,1.9
2022-07-26T08:11:05.373Z,1.8
2022-07-26T08:12:21.619Z,1.8
2022-07-26T08:13:37.857Z,1.7
2022-07-26T08:14:54.099Z,1.9
2022-07-26T08:16:10.327Z,1.8
2022-07-26T08:17:26.581Z,1.9
2022-07-26T08:18:42.821Z,1.7
2022-07-26T08:19:59.063Z,1.8
2022-07-26T08:21:15.307Z,1.7
2022-07-26T08:22:31.533Z,1.8
2022-07-26T08:23:47.780Z,1.7
2022-07-26T08:25:04.019Z,1.7
2022-07-26T08:26:19.270Z,1.8
2022-07-26T08:27:35.521Z,1.9
2022-07-26T08:28:51.747Z,1.9
2022-07-26T08:30:07.986Z,1.6
2022-07-26T08:31:24.236Z,1.7
2022-07-26T08:32:40.465Z,1.7
2022-07-26T08:33:56.703Z,1.6
2022-07-26T08:35:12.955Z,1.6
2022-07-26T08:36:29.188Z,1.6
2022-07-26T08:37:45.419Z,1.7
2022-07-26T08:39:01.667Z,1.5
2022-07-26T08:40:17.919Z,1.7
2022-07-26T08:41:34.138Z,1.6
2022-07-26T08:42:49.401Z,1.6
2022-07-26T08:44:05.643Z,1.6
2022-07-26T08:45:21.883Z,1.4
2022-07-26T08:46:38.117Z,1.6
2022-07-26T08:47:54.368Z,1.7
2022-07-26T08:49:10.598Z,1.6
2022-07-26T08:50:26.838Z,1.7
2022-07-26T08:51:43.090Z,1.7
2022-07-26T08:52:59.311Z,1.9
2022-07-26T08:54:15.554Z,1.8
2022-07-26T08:55:31.797Z,1.7
2022-07-26T08:56:48.036Z,1.7
2022-07-26T08:58:04.275Z,1.7
2022-07-26T08:59:19.537Z,1.6
2022-07-26T09:01:52.018Z,1.8
2022-07-26T09:03:08.264Z,1.7
2022-07-26T09:04:24.494Z,1.7
2022-07-26T09:05:40.731Z,1.7
2022-07-26T09:06:56.983Z,1.7
2022-07-26T09:08:13.212Z,1.7
2022-07-26T09:09:29.446Z,1.6
2022-07-26T09:10:45.691Z,1.6
2022-07-26T09:12:01.927Z,1.9
2022-07-26T09:13:18.175Z,1.8
2022-07-26T09:15:50.661Z,1.6
2022-07-26T09:17:05.920Z,1.6
2022-07-26T09:18:22.155Z,1.6
2022-07-26T09:19:38.389Z,1.8
2022-07-26T09:20:54.630Z,1.7
2022-07-26T09:22:10.864Z,1.9
2022-07-26T09:23:27.109Z,1.9
2022-07-26T09:24:43.353Z,1.7
2022-07-26T09:25:59.600Z,1.8
2022-07-26T09:27:15.828Z,1.8
2022-07-26T09:28:32.074Z,1.7
2022-07-26T09:29:48.314Z,1.8
2022-07-26T09:31:04.541Z,1.8
2022-07-26T09:32:20.790Z,1.6
2022-07-26T09:33:36.055Z,1.8
2022-07-26T09:34:52.287Z,1.9
2022-07-26T09:36:08.527Z,1.7
2022-07-26T09:37:24.770Z,1.7
2022-07-26T09:38:41.014Z,1.8
2022-07-26T09:39:57.242Z,1.9
2022-07-26T09:41:13.484Z,2.2
2022-07-26T09:42:29.714Z,2
2022-07-26T09:43:45.974Z,2
2022-07-26T09:45:02.194Z,1.9
2022-07-26T09:46:18.444Z,1.8
2022-07-26T09:47:34.672Z,1.8
2022-07-26T09:48:50.926Z,1.9
2022-07-26T09:50:06.175Z,2
2022-07-26T09:51:22.426Z,2
2022-07-26T09:52:38.654Z,1.9
2022-07-26T09:53:54.906Z,2
2022-07-26T09:55:11.137Z,1.9
2022-07-26T09:56:27.369Z,2
2022-07-26T09:57:43.617Z,1.8
2022-07-26T09:58:59.864Z,2.1
2022-07-26T10:00:16.095Z,1.9
2022-07-26T10:01:32.335Z,1.8
2022-07-26T10:02:48.586Z,1.9
2022-07-26T10:04:04.812Z,1.9
2022-07-26T10:05:21.053Z,2.1
2022-07-26T10:06:36.317Z,2.1
2022-07-26T10:07:52.551Z,1.8
2022-07-26T10:09:08.794Z,2
2022-07-26T10:10:25.027Z,2
2022-07-26T10:11:41.269Z,1.7
2022-07-26T10:12:57.505Z,1.9
2022-07-26T10:14:13.752Z,1.8
2022-07-26T10:15:29.997Z,1.8
2022-07-26T10:16:46.237Z,1.9
2022-07-26T10:18:02.471Z,1.9
2022-07-26T10:19:18.704Z,1.9
2022-07-26T10:20:34.960Z,1.9
2022-07-26T10:23:07.431Z,1.7
2022-07-26T10:24:22.689Z,1.7
2022-07-26T10:25:38.933Z,1.7
2022-07-26T10:26:55.166Z,1.8
2022-07-26T10:28:11.398Z,1.7
2022-07-26T10:29:27.653Z,1.9
2022-07-26T10:30:43.893Z,1.7
2022-07-26T10:32:00.121Z,2
2022-07-26T10:33:16.363Z,1.9
2022-07-26T10:34:32.606Z,1.8
2022-07-26T10:35:48.840Z,1.9
2022-07-26T10:37:05.086Z,1.6
2022-07-26T10:38:21.321Z,1.9
2022-07-26T10:39:37.562Z,1.6
2022-07-26T10:40:52.818Z,1.6
2022-07-26T10:42:09.071Z,1.7
2022-07-26T10:43:25.304Z,1.6
2022-07-26T10:44:41.552Z,1.7
2022-07-26T10:45:57.784Z,1.6
2022-07-26T10:47:14.024Z,1.6
2022-07-26T10:48:30.258Z,1.7
2022-07-26T10:49:46.511Z,1.8
2022-07-26T10:51:02.732Z,1.6
2022-07-26T10:52:18.977Z,1.5
2022-07-26T10:53:35.225Z,1.5
2022-07-26T10:54:51.457Z,1.5
2022-07-26T10:56:07.700Z,1.6
2022-07-26T10:57:22.948Z,1.9
2022-07-26T10:58:39.192Z,1.8
2022-07-26T10:59:55.430Z,1.6
2022-07-26T11:01:11.670Z,1.7
2022-07-26T11:02:26.932Z,1.6
2022-07-26T11:03:43.175Z,1.7
2022-07-26T11:04:59.420Z,1.6
2022-07-26T11:06:15.652Z,1.7
2022-07-26T11:07:31.893Z,1.6
2022-07-26T11:08:48.143Z,1.7
2022-07-26T11:10:04.373Z,1.8
2022-07-26T11:11:20.612Z,1.8
2022-07-26T11:12:36.860Z,1.7
2022-07-26T11:13:53.097Z,1.8
2022-07-26T11:15:09.329Z,1.6
2022-07-26T11:16:25.571Z,1.7
2022-07-26T11:17:41.818Z,2
2022-07-26T11:18:57.066Z,1.8
2022-07-26T11:20:13.302Z,1.8
2022-07-26T11:21:29.560Z,1.8
2022-07-26T11:22:45.796Z,2
2022-07-26T11:24:02.023Z,1.9
2022-07-26T11:25:18.276Z,1.8
2022-07-26T11:26:34.518Z,2
2022-07-26T11:27:50.757Z,2
2022-07-26T11:29:06.995Z,2.1
2022-07-26T11:30:23.227Z,2
2022-07-26T11:31:39.478Z,1.9
2022-07-26T11:32:55.709Z,1.9
2022-07-26T11:34:11.939Z,1.9
2022-07-26T11:35:27.211Z,2.1
2022-07-26T11:36:43.453Z,2
2022-07-26T11:37:59.675Z,1.8
2022-07-26T11:39:15.916Z,2.2
2022-07-26T11:40:32.168Z,2
2022-07-26T11:41:48.404Z,2.1
2022-07-26T11:43:04.637Z,2.1
2022-07-26T11:44:20.873Z,1.9
2022-07-26T11:45:37.127Z,1.9
2022-07-26T11:46:53.362Z,2
2022-07-26T11:48:09.613Z,2.1
2022-07-26T11:49:25.845Z,2
2022-07-26T11:50:42.074Z,1.9
2022-07-26T11:51:57.343Z,2.1
2022-07-26T11:53:13.569Z,2
2022-07-26T11:54:29.826Z,1.8
2022-07-26T11:55:46.066Z,1.7
2022-07-26T11:57:02.306Z,1.8
2022-07-26T11:58:18.541Z,1.8
2022-07-26T11:59:34.779Z,1.8
2022-07-26T12:00:51.012Z,2
2022-07-26T12:02:07.264Z,1.8
2022-07-26T12:03:23.485Z,2
2022-07-26T12:04:39.742Z,1.8
2022-07-26T12:05:55.973Z,1.9
2022-07-26T12:07:12.223Z,2
2022-07-26T12:08:27.476Z,1.8
2022-07-26T12:09:43.713Z,1.9
2022-07-26T12:10:59.941Z,1.9
2022-07-26T12:12:16.192Z,1.9
2022-07-26T12:13:32.433Z,1.9
2022-07-26T12:14:48.675Z,1.9
2022-07-26T12:16:04.908Z,1.9
2022-07-26T12:17:21.152Z,1.9
2022-07-26T12:18:37.390Z,1.9
2022-07-26T12:19:53.637Z,2
2022-07-26T12:21:09.874Z,1.9
2022-07-26T12:22:26.097Z,2.1
2022-07-26T12:23:42.342Z,1.9
2022-07-26T12:24:57.602Z,2
2022-07-26T12:26:13.840Z,2.2
2022-07-26T12:27:30.084Z,2
2022-07-26T12:28:46.331Z,2
2022-07-26T12:30:02.551Z,1.9
2022-07-26T12:31:18.809Z,2
2022-07-26T12:32:35.042Z,2
2022-07-26T12:33:51.287Z,2
2022-07-26T12:35:07.511Z,2.1
2022-07-26T12:36:23.769Z,2
2022-07-26T12:37:40.001Z,2.1
2022-07-26T12:38:56.236Z,2.4
2022-07-26T12:40:12.487Z,2.2
2022-07-26T12:41:27.745Z,2.3
2022-07-26T12:42:43.978Z,2.3
2022-07-26T12:44:00.217Z,2.3
2022-07-26T12:45:16.456Z,2.3
2022-07-26T12:46:32.704Z,2.3
2022-07-26T12:47:48.926Z,2.4
2022-07-26T12:49:05.180Z,2.5
2022-07-26T12:50:21.422Z,2.1
2022-07-26T12:51:37.651Z,2.3
2022-07-26T12:52:53.903Z,2.4
2022-07-26T12:54:10.137Z,2.3
2022-07-26T12:55:26.383Z,2.2
2022-07-26T12:56:42.610Z,2.4
2022-07-26T12:57:57.864Z,2.5
2022-07-26T12:59:14.098Z,2.4
2022-07-26T13:00:30.352Z,2.3
2022-07-26T13:01:46.583Z,2.4
2022-07-26T13:03:02.836Z,2.2
2022-07-26T13:04:19.056Z,2.5
2022-07-26T13:05:35.314Z,2.4
2022-07-26T13:06:51.539Z,2.3
2022-07-26T13:08:07.787Z,2.5
2022-07-26T13:09:24.033Z,2.8
2022-07-26T13:10:40.268Z,2.4
2022-07-26T13:11:56.494Z,2.4
2022-07-26T13:13:12.747Z,2.3
2022-07-26T13:14:27.994Z,2.2
2022-07-26T13:15:44.235Z,2.3
2022-07-26T13:17:00.470Z,2.3
2022-07-26T13:18:16.727Z,2.3
2022-07-26T13:19:32.962Z,2.2
2022-07-26T13:20:49.195Z,2.4
2022-07-26T13:22:05.444Z,2.6
2022-07-26T13:23:21.670Z,2.5
2022-07-26T13:24:37.913Z,2.7
2022-07-26T13:25:54.168Z,2.5
2022-07-26T13:27:10.405Z,2.4
2022-07-26T13:28:26.646Z,2.7
2022-07-26T13:29:42.870Z,2.5
2022-07-26T13:30:58.136Z,2.4
2022-07-26T13:32:14.372Z,2.4
2022-07-26T13:33:30.619Z,2.4
2022-07-26T13:34:46.849Z,2.5
2022-07-26T13:36:03.091Z,2.4
2022-07-26T13:37:19.338Z,2.6
2022-07-26T13:38:35.579Z,2.3
2022-07-26T13:39:51.819Z,2.2
2022-07-26T13:41:08.045Z,2.2
2022-07-26T13:42:24.295Z,2.3
2022-07-26T13:43:40.526Z,2.3
2022-07-26T13:44:56.768Z,2.3
2022-07-26T13:46:13.010Z,2.2
2022-07-26T13:47:28.272Z,2.2
2022-07-26T13:48:44.505Z,2.3
2022-07-26T13:51:16.983Z,2.8
2022-07-26T13:52:33.218Z,2.7
2022-07-26T13:53:49.473Z,2.8
2022-07-26T13:55:05.697Z,2.8
2022-07-26T13:56:21.946Z,2.8
2022-07-26T13:57:38.183Z,3
2022-07-26T13:58:54.428Z,2.8
2022-07-26T14:00:10.671Z,2.9
2022-07-26T14:01:26.905Z,3
2022-07-26T14:02:43.147Z,3.2
2022-07-26T14:03:58.387Z,3.1
2022-07-26T14:05:14.640Z,3.3
2022-07-26T14:06:30.875Z,2.9
2022-07-26T14:07:47.114Z,3.1
2022-07-26T14:09:03.351Z,2.8
2022-07-26T14:10:19.599Z,2.9
2022-07-26T14:11:35.833Z,3.3
2022-07-26T14:12:52.081Z,3.1
2022-07-26T14:14:08.322Z,3
2022-07-26T14:15:24.562Z,3
2022-07-26T14:16:40.804Z,3
2022-07-26T14:17:57.038Z,3.1
2022-07-26T14:19:13.284Z,3.3
2022-07-26T14:20:28.522Z,3.2
2022-07-26T14:21:44.765Z,3.2
2022-07-26T14:23:01.012Z,2.9
2022-07-26T14:24:17.249Z,3.3
2022-07-26T14:25:33.496Z,2.7
2022-07-26T14:26:49.722Z,3
2022-07-26T14:28:05.958Z,3
2022-07-26T14:29:22.207Z,3
2022-07-26T14:30:38.449Z,2.8
2022-07-26T14:31:54.695Z,2.8
2022-07-26T14:33:10.928Z,2.7
2022-07-26T14:34:27.170Z,2.6
2022-07-26T14:35:43.409Z,2.6
2022-07-26T14:36:58.666Z,2.4
2022-07-26T14:38:14.898Z,2.6
2022-07-26T14:39:31.148Z,2.6
2022-07-26T14:40:47.373Z,2.7
2022-07-26T14:42:03.618Z,2.8
2022-07-26T14:43:19.848Z,2.5
2022-07-26T14:44:36.100Z,2.5
2022-07-26T14:45:52.342Z,2.6
2022-07-26T14:47:08.576Z,2.6
2022-07-26T14:48:24.819Z,2.6
2022-07-26T14:49:41.062Z,2.3
2022-07-26T14:50:57.303Z,2.6
2022-07-26T14:52:13.531Z,2.8
2022-07-26T14:53:28.789Z,2.6
2022-07-26T14:54:45.039Z,2.5
2022-07-26T14:56:01.268Z,2.6
2022-07-26T14:57:17.521Z,2.6
2022-07-26T14:58:33.757Z,2.7
2022-07-26T14:59:50.000Z,2.7
2022-07-26T15:01:06.239Z,2.8
2022-07-26T15:02:22.463Z,2.7
2022-07-26T15:03:38.709Z,2.6
2022-07-26T15:04:54.945Z,2.6
2022-07-26T15:06:11.188Z,2.7
2022-07-26T15:07:27.422Z,2.8
2022-07-26T15:08:43.666Z,3
2022-07-26T15:09:58.914Z,2.8
2022-07-26T15:11:15.154Z,2.6
2022-07-26T15:12:31.400Z,2.7
2022-07-26T15:13:47.633Z,2.7
2022-07-26T15:15:03.884Z,2.8
2022-07-26T15:16:20.119Z,2.6
2022-07-26T15:17:35.379Z,2.6
2022-07-26T15:18:51.622Z,2.5
2022-07-26T15:20:07.858Z,2.5
2022-07-26T15:21:24.091Z,2.5
2022-07-26T15:22:40.345Z,2.5
2022-07-26T15:23:56.578Z,2.5
2022-07-26T15:25:12.831Z,2.5
2022-07-26T15:26:29.062Z,2.6
2022-07-26T15:27:45.308Z,2.3
2022-07-26T15:29:01.537Z,2.4
2022-07-26T15:30:17.777Z,2.2
2022-07-26T15:31:34.011Z,2.5
2022-07-26T15:32:50.262Z,2.5
2022-07-26T15:34:05.515Z,2.5
2022-07-26T15:35:21.754Z,2.3
2022-07-26T15:36:37.994Z,2.3
2022-07-26T15:37:54.237Z,2.5
2022-07-26T15:39:10.469Z,2.3
2022-07-26T15:40:26.706Z,2.3
2022-07-26T15:41:42.955Z,2.5
2022-07-26T15:42:59.195Z,2.5
2022-07-26T15:44:15.437Z,2.2
2022-07-26T15:45:31.668Z,2.3
2022-07-26T15:48:04.153Z,2.3
2022-07-26T15:49:20.399Z,2
2022-07-26T15:50:35.641Z,2
2022-07-26T15:51:51.880Z,2.1
2022-07-26T15:53:08.125Z,2.1
2022-07-26T15:54:24.372Z,2.4
2022-07-26T15:55:40.600Z,2.3
2022-07-26T15:56:56.839Z,2.3
2022-07-26T15:58:13.082Z,2.2
2022-07-26T15:59:29.329Z,2.2
2022-07-26T16:00:45.555Z,2
2022-07-26T16:02:01.803Z,2.3
2022-07-26T16:03:18.051Z,2.2
2022-07-26T16:04:34.290Z,2.2
2022-07-26T16:05:50.514Z,2.2
2022-07-26T16:07:05.772Z,2.3
2022-07-26T16:08:22.007Z,2.3
2022-07-26T16:09:38.253Z,2
2022-07-26T16:10:54.499Z,2.1
2022-07-26T16:12:10.729Z,2.1
2022-07-26T16:13:26.974Z,2
2022-07-26T16:14:43.214Z,2.4
2022-07-26T16:15:59.453Z,2.1
2022-07-26T16:17:15.688Z,2.1
2022-07-26T16:18:31.939Z,2.1
2022-07-26T16:19:48.175Z,2
2022-07-26T16:21:04.406Z,1.9
2022-07-26T16:22:20.641Z,2
2022-07-26T16:23:35.910Z,2
2022-07-26T16:24:52.148Z,2.4
2022-07-26T16:26:08.393Z,2
2022-07-26T16:27:24.627Z,2.1
2022-07-26T16:28:40.865Z,2.1
2022-07-26T16:29:57.103Z,2.3
2022-07-26T16:31:13.347Z,2.1
2022-07-26T16:32:29.593Z,2
2022-07-26T16:33:45.831Z,2
2022-07-26T16:35:02.069Z,2.1
2022-07-26T16:36:18.301Z,2
2022-07-26T16:37:34.551Z,2.2
2022-07-26T16:38:50.781Z,2.1
2022-07-26T16:41:22.271Z,2.1
2022-07-26T16:42:38.501Z,2
2022-07-26T16:43:54.745Z,2.1
2022-07-26T16:45:10.992Z,2.1
2022-07-26T16:46:27.228Z,2
2022-07-26T16:47:43.465Z,1.9
2022-07-26T16:48:59.692Z,2
2022-07-26T16:50:15.935Z,1.9
2022-07-26T16:51:32.170Z,2.1
2022-07-26T16:52:48.417Z,2
2022-07-26T16:54:04.666Z,1.9
2022-07-26T16:55:20.890Z,2.1
2022-07-26T16:56:36.155Z,1.9
2022-07-26T16:57:52.387Z,1.9
2022-07-26T16:59:08.638Z,1.9
2022-07-26T17:00:24.874Z,1.9
2022-07-26T17:01:41.108Z,1.9
2022-07-26T17:02:57.363Z,2.1
2022-07-26T17:04:13.588Z,2.1
2022-07-26T17:05:29.823Z,1.9
2022-07-26T17:06:46.068Z,2
2022-07-26T17:08:02.314Z,1.9
2022-07-26T17:09:18.554Z,2.3
2022-07-26T17:10:34.792Z,1.9
2022-07-26T17:11:51.023Z,1.8
2022-07-26T17:13:06.285Z,2
2022-07-26T17:14:22.520Z,2
2022-07-26T17:15:38.767Z,2.1
2022-07-26T17:18:11.238Z,2
2022-07-26T17:19:27.495Z,2
2022-07-26T17:20:43.732Z,2.1
2022-07-26T17:21:59.965Z,2.1
2022-07-26T17:23:16.196Z,2
2022-07-26T17:24:32.454Z,1.9
2022-07-26T17:25:48.679Z,2
2022-07-26T17:27:04.926Z,2
2022-07-26T17:28:21.156Z,2
2022-07-26T17:29:36.410Z,2.1
2022-07-26T17:30:52.655Z,2.1
2022-07-26T17:32:08.888Z,2
2022-07-26T17:33:25.133Z,1.8
2022-07-26T17:34:41.377Z,1.8
2022-07-26T17:35:57.627Z,1.9
2022-07-26T17:37:13.865Z,2
2022-07-26T17:38:30.102Z,2
2022-07-26T17:39:46.332Z,2.3
2022-07-26T17:41:02.570Z,2
2022-07-26T17:42:18.814Z,2
2022-07-26T17:43:35.049Z,2
2022-07-26T17:44:51.301Z,2.1
2022-07-26T17:46:06.551Z,1.8
2022-07-26T17:48:39.040Z,1.9
2022-07-26T17:49:55.268Z,1.9
2022-07-26T17:51:11.519Z,1.8
2022-07-26T17:52:27.747Z,1.7
2022-07-26T17:53:43.994Z,2
2022-07-26T17:55:00.231Z,1.8